Terminal Aerodrome Forecast
Issued by NWS Austin/San Antonio, TX

Home | Current Version | Previous Version | Text Only | Print | Product List | Glossary On
Versions: 1 2 3 4 5 6 7 8 9 10 11 12 13 14 15 16 17 18 19 20 21 22 23 24 25 26 27
000
FTUS44 KEWX 271305 AAA
TAFAUS
TAF AMD
KAUS 271305Z 2713/2818 19007KT 6SM BR BKN015
      TEMPO 2713/2715 VRB15KT 2SM TSRA BR BKN015CB
     FM271600 19010KT P6SM BKN035
     FM271800 18010KT P6SM VCTS BKN050CB
     FM272200 17010KT P6SM SCT050 BKN150
     FM280800 18004KT P6SM BKN015=

USA.gov is the U.S. government's official web portal to all federal, state and local government web resources and services.